createdAt,value
2022-11-21T00:01:22.453Z,96361.00
2022-11-21T00:03:49.834Z,96363.00
2022-11-21T00:06:17.392Z,96351.00
2022-11-21T00:08:44.723Z,96339.00
2022-11-21T00:11:11.920Z,96341.00
2022-11-21T00:13:38.930Z,96347.00
2022-11-21T00:16:08.490Z,96352.00
2022-11-21T00:18:36.209Z,96339.00
2022-11-21T00:21:22.098Z,96336.00
2022-11-21T00:23:49.034Z,96337.00
2022-11-21T00:26:17.453Z,96322.00
2022-11-21T00:28:45.255Z,96315.00
2022-11-21T00:31:23.277Z,96316.00
2022-11-21T00:33:50.031Z,96310.00
2022-11-21T00:36:16.922Z,96297.00
2022-11-21T00:38:43.648Z,96304.00
2022-11-21T00:41:10.405Z,96300.00
2022-11-21T00:43:37.190Z,96296.00
2022-11-21T00:46:04.260Z,96297.00
2022-11-21T00:48:32.095Z,96302.00
2022-11-21T00:51:00.442Z,96292.00
2022-11-21T00:53:27.763Z,96282.00
2022-11-21T00:55:54.579Z,96280.00
2022-11-21T00:58:21.442Z,96271.00
2022-11-21T01:00:48.206Z,96250.00
2022-11-21T01:03:15.054Z,96267.00
2022-11-21T01:05:41.863Z,96268.00
2022-11-21T01:08:08.679Z,96258.00
2022-11-21T01:10:36.606Z,96240.00
2022-11-21T01:13:03.526Z,96220.00
2022-11-21T01:15:30.302Z,96232.00
2022-11-21T01:17:57.016Z,96227.00
2022-11-21T01:20:23.764Z,96220.00
2022-11-21T01:22:50.520Z,96222.00
2022-11-21T01:25:17.386Z,96212.00
2022-11-21T01:27:44.150Z,96219.00
2022-11-21T01:30:11.864Z,96217.00
2022-11-21T01:32:38.613Z,96223.00
2022-11-21T01:35:06.060Z,96222.00
2022-11-21T01:37:32.782Z,96227.00
2022-11-21T01:39:59.537Z,96238.00
2022-11-21T01:42:26.254Z,96230.00
2022-11-21T01:44:54.449Z,96236.00
2022-11-21T01:47:22.590Z,96227.00
2022-11-21T01:49:52.178Z,96238.00
2022-11-21T01:52:29.419Z,96230.00
2022-11-21T01:55:03.262Z,96239.00
2022-11-21T01:57:41.443Z,96231.00
2022-11-21T02:00:11.091Z,96235.00
2022-11-21T02:02:46.254Z,96230.00
2022-11-21T02:05:25.979Z,96236.00
2022-11-21T02:07:57.747Z,96221.00
2022-11-21T02:10:24.949Z,96235.00
2022-11-21T02:12:58.173Z,96236.00
2022-11-21T02:15:27.893Z,96230.00
2022-11-21T02:17:54.690Z,96227.00
2022-11-21T02:20:25.132Z,96214.00
2022-11-21T02:23:23.356Z,96223.00
2022-11-21T02:25:51.088Z,96207.00
2022-11-21T02:28:21.428Z,96204.00
2022-11-21T02:30:48.172Z,96219.00
2022-11-21T02:33:16.257Z,96214.00
2022-11-21T02:35:43.022Z,96203.00
2022-11-21T02:38:31.856Z,96208.00
2022-11-21T02:41:13.750Z,96200.00
2022-11-21T02:43:51.408Z,96205.00
2022-11-21T02:46:18.163Z,96205.00
2022-11-21T02:48:45.276Z,96195.00
2022-11-21T02:51:12.011Z,96198.00
2022-11-21T02:53:47.380Z,96214.00
2022-11-21T02:56:29.497Z,96206.00
2022-11-21T02:58:59.550Z,96207.00
2022-11-21T03:01:33.008Z,96220.00
2022-11-21T03:04:01.132Z,96222.00
2022-11-21T03:06:33.704Z,96218.00
2022-11-21T03:09:08.638Z,96216.00
2022-11-21T03:11:40.302Z,96211.00
2022-11-21T03:14:15.375Z,96199.00
2022-11-21T03:20:03.694Z,96191.00
2022-11-21T03:22:30.656Z,96197.00
2022-11-21T03:24:57.440Z,96205.00
2022-11-21T03:27:24.304Z,96188.00
2022-11-21T03:29:51.067Z,96198.00
2022-11-21T03:32:17.798Z,96197.00
2022-11-21T03:34:44.540Z,96199.00
2022-11-21T03:37:11.248Z,96197.00
2022-11-21T03:39:37.973Z,96196.00
2022-11-21T03:42:04.818Z,96191.00
2022-11-21T03:44:31.541Z,96183.00
2022-11-21T03:46:58.262Z,96189.00
2022-11-21T03:49:25.012Z,96189.00
2022-11-21T03:51:51.753Z,96186.00
2022-11-21T03:54:19.566Z,96192.00
2022-11-21T03:56:46.304Z,96187.00
2022-11-21T03:59:13.066Z,96185.00
2022-11-21T04:01:39.840Z,96189.00
2022-11-21T04:04:06.673Z,96200.00
2022-11-21T04:06:33.399Z,96197.00
2022-11-21T04:09:00.254Z,96200.00
2022-11-21T04:11:26.977Z,96195.00
2022-11-21T04:13:53.714Z,96203.00
2022-11-21T04:16:20.870Z,96202.00
2022-11-21T04:18:47.610Z,96207.00
2022-11-21T04:21:14.382Z,96196.00
2022-11-21T04:23:41.105Z,96200.00
2022-11-21T04:26:08.206Z,96203.00
2022-11-21T04:28:35.028Z,96200.00
2022-11-21T04:31:10.297Z,96195.00
2022-11-21T04:33:38.811Z,96188.00
2022-11-21T04:36:09.324Z,96194.00
2022-11-21T04:38:36.807Z,96199.00
2022-11-21T04:41:04.666Z,96199.00
2022-11-21T04:43:31.397Z,96202.00
2022-11-21T04:45:58.188Z,96194.00
2022-11-21T04:48:24.905Z,96206.00
2022-11-21T04:50:51.672Z,96199.00
2022-11-21T04:53:18.429Z,96204.00
2022-11-21T04:55:45.202Z,96202.00
2022-11-21T04:58:12.024Z,96199.00
2022-11-21T05:00:38.757Z,96195.00
2022-11-21T05:03:07.607Z,96187.00
2022-11-21T05:05:34.400Z,96192.00
2022-11-21T05:08:01.142Z,96190.00
2022-11-21T05:10:27.978Z,96191.00
2022-11-21T05:13:19.844Z,96195.00
2022-11-21T05:15:47.533Z,96206.00
2022-11-21T05:18:14.294Z,96201.00
2022-11-21T05:20:41.378Z,96190.00
2022-11-21T05:23:08.102Z,96205.00
2022-11-21T05:25:34.842Z,96209.00
2022-11-21T05:28:01.556Z,96206.00
2022-11-21T05:30:28.286Z,96209.00
2022-11-21T05:32:55.085Z,96205.00
2022-11-21T05:35:21.858Z,96203.00
2022-11-21T05:37:48.621Z,96207.00
2022-11-21T05:40:15.885Z,96206.00
2022-11-21T05:43:01.294Z,96201.00
2022-11-21T05:45:28.142Z,96207.00
2022-11-21T05:47:54.888Z,96207.00
2022-11-21T05:50:21.629Z,96206.00
2022-11-21T05:52:48.403Z,96200.00
2022-11-21T05:55:15.464Z,96196.00
2022-11-21T05:57:42.196Z,96192.00
2022-11-21T06:00:09.753Z,96199.00
2022-11-21T06:02:54.967Z,96200.00
2022-11-21T06:05:21.721Z,96190.00
2022-11-21T06:07:48.465Z,96193.00
2022-11-21T06:10:15.366Z,96194.00
2022-11-21T06:12:42.098Z,96185.00
2022-11-21T06:15:09.408Z,96186.00
2022-11-21T06:17:36.134Z,96187.00
2022-11-21T06:20:02.989Z,96191.00
2022-11-21T06:22:29.793Z,96182.00
2022-11-21T06:24:56.552Z,96185.00
2022-11-21T06:27:23.289Z,96187.00
2022-11-21T06:29:50.027Z,96186.00
2022-11-21T06:32:16.856Z,96182.00
2022-11-21T06:34:43.682Z,96183.00
2022-11-21T06:37:10.417Z,96179.00
2022-11-21T06:39:37.238Z,96176.00
2022-11-21T06:42:04.168Z,96170.00
2022-11-21T06:44:31.128Z,96173.00
2022-11-21T06:46:57.985Z,96177.00
2022-11-21T06:49:24.902Z,96179.00
2022-11-21T06:51:51.653Z,96165.00
2022-11-21T06:54:18.406Z,96173.00
2022-11-21T06:56:45.153Z,96178.00
2022-11-21T06:59:11.887Z,96178.00
2022-11-21T07:01:38.775Z,96178.00
2022-11-21T07:04:05.545Z,96168.00
2022-11-21T07:06:34.498Z,96163.00
2022-11-21T07:11:47.943Z,96153.00
2022-11-21T07:14:14.687Z,96150.00
2022-11-21T07:16:41.416Z,96150.00
2022-11-21T07:19:08.146Z,96154.00
2022-11-21T07:21:34.906Z,96156.00
2022-11-21T07:24:01.760Z,96146.00
2022-11-21T07:26:28.549Z,96141.00
2022-11-21T07:28:55.284Z,96152.00
2022-11-21T07:31:22.131Z,96147.00
2022-11-21T07:33:49.015Z,96149.00
2022-11-21T07:36:15.757Z,96147.00
2022-11-21T07:38:42.596Z,96149.00
2022-11-21T07:41:10.099Z,96143.00
2022-11-21T07:43:36.886Z,96142.00
2022-11-21T07:46:03.662Z,96140.00
2022-11-21T07:48:30.439Z,96140.00
2022-11-21T07:50:57.194Z,96149.00
2022-11-21T07:53:24.147Z,96143.00
2022-11-21T07:55:50.912Z,96138.00
2022-11-21T07:58:18.033Z,96134.00
2022-11-21T08:00:44.865Z,96141.00
2022-11-21T08:03:13.563Z,96140.00
2022-11-21T08:05:43.502Z,96134.00
2022-11-21T08:08:12.734Z,96140.00
2022-11-21T08:10:42.549Z,96124.00
2022-11-21T08:13:09.836Z,96122.00
2022-11-21T08:15:37.002Z,96121.00
2022-11-21T08:18:17.118Z,96108.00
2022-11-21T08:20:43.901Z,96114.00
2022-11-21T08:23:11.047Z,96122.00
2022-11-21T08:25:39.816Z,96107.00
2022-11-21T08:28:07.816Z,96110.00
2022-11-21T08:30:35.925Z,96110.00
2022-11-21T08:33:03.550Z,96105.00
2022-11-21T08:35:30.691Z,96100.00
2022-11-21T08:38:01.548Z,96087.00
2022-11-21T08:40:31.267Z,96085.00
2022-11-21T08:43:04.426Z,96092.00
2022-11-21T08:45:33.547Z,96085.00
2022-11-21T08:48:00.879Z,96074.00
2022-11-21T08:50:31.876Z,96078.00
2022-11-21T08:53:02.357Z,96077.00
2022-11-21T08:55:30.232Z,96079.00
2022-11-21T08:57:57.192Z,96078.00
2022-11-21T09:00:24.295Z,96086.00
2022-11-21T09:02:51.199Z,96075.00
2022-11-21T09:05:17.982Z,96070.00
2022-11-21T09:07:44.899Z,96083.00
2022-11-21T09:10:11.758Z,96070.00
2022-11-21T09:12:38.546Z,96067.00
2022-11-21T09:15:24.873Z,96061.00
2022-11-21T09:18:03.744Z,96060.00
2022-11-21T09:20:38.995Z,96051.00
2022-11-21T09:23:11.064Z,96048.00
2022-11-21T09:25:38.161Z,96039.00
2022-11-21T09:28:07.745Z,96045.00
2022-11-21T09:30:35.698Z,96040.00
2022-11-21T09:33:04.141Z,96028.00
2022-11-21T09:35:31.496Z,96024.00
2022-11-21T09:37:59.015Z,96020.00
2022-11-21T09:40:26.346Z,96008.00
2022-11-21T09:43:31.079Z,96000.00
2022-11-21T09:46:13.943Z,95994.00
2022-11-21T09:49:01.266Z,95988.00
2022-11-21T09:51:30.912Z,95994.00
2022-11-21T09:54:17.907Z,95998.00
2022-11-21T09:56:45.402Z,95997.00
2022-11-21T09:59:21.403Z,95993.00
2022-11-21T10:01:48.348Z,95982.00
2022-11-21T10:04:15.138Z,95975.00
2022-11-21T10:07:13.195Z,95978.00
2022-11-21T10:10:20.686Z,95976.00
2022-11-21T10:13:28.787Z,95962.00
2022-11-21T10:16:18.807Z,95954.00
2022-11-21T10:18:58.230Z,95942.00
2022-11-21T10:21:24.910Z,95937.00
2022-11-21T10:24:17.246Z,95933.00
2022-11-21T10:27:06.906Z,95923.00
2022-11-21T10:29:54.913Z,95916.00
2022-11-21T10:32:35.144Z,95918.00
2022-11-21T10:35:14.791Z,95903.00
2022-11-21T10:37:54.368Z,95895.00
2022-11-21T10:40:33.382Z,95888.00
2022-11-21T10:43:53.324Z,95883.00
2022-11-21T10:46:20.526Z,95874.00
2022-11-21T10:49:00.793Z,95876.00
2022-11-21T10:51:57.343Z,95866.00
2022-11-21T10:54:32.997Z,95869.00
2022-11-21T10:57:22.189Z,95876.00
2022-11-21T11:00:15.043Z,95867.00
2022-11-21T11:03:05.320Z,95861.00
2022-11-21T11:05:37.707Z,95853.00
2022-11-21T11:08:14.709Z,95846.00
2022-11-21T11:11:01.760Z,95840.00
2022-11-21T11:13:51.682Z,95827.00
2022-11-21T11:16:24.390Z,95802.00
2022-11-21T11:19:04.253Z,95802.00
2022-11-21T11:21:51.317Z,95802.00
2022-11-21T11:24:20.197Z,95797.00
2022-11-21T11:26:48.417Z,95795.00
2022-11-21T11:29:21.790Z,95787.00
2022-11-21T11:31:59.437Z,95791.00
2022-11-21T11:34:40.434Z,95774.00
2022-11-21T11:37:38.740Z,95765.00
2022-11-21T11:40:30.546Z,95759.00
2022-11-21T11:43:32.401Z,95751.00
2022-11-21T11:46:35.741Z,95734.00
2022-11-21T11:49:20.432Z,95730.00
2022-11-21T11:51:55.399Z,95719.00
2022-11-21T11:54:34.458Z,95723.00
2022-11-21T11:57:04.009Z,95714.00
2022-11-21T11:59:51.364Z,95725.00
2022-11-21T12:03:02.779Z,95715.00
2022-11-21T12:05:32.249Z,95706.00
2022-11-21T12:08:47.539Z,95694.00
2022-11-21T12:12:03.274Z,95686.00
2022-11-21T12:15:36.283Z,95682.00
2022-11-21T12:18:21.234Z,95673.00
2022-11-21T12:21:03.304Z,95660.00
2022-11-21T12:23:41.868Z,95650.00
2022-11-21T12:26:20.545Z,95643.00
2022-11-21T12:29:02.322Z,95637.00
2022-11-21T12:32:02.646Z,95633.00
2022-11-21T12:35:11.405Z,95619.00
2022-11-21T12:38:15.498Z,95613.00
2022-11-21T12:41:36.635Z,95607.00
2022-11-21T12:44:27.177Z,95599.00
2022-11-21T12:47:54.564Z,95587.00
2022-11-21T12:50:48.302Z,95573.00
2022-11-21T12:53:59.587Z,95573.00
2022-11-21T12:57:11.949Z,95559.00
2022-11-21T13:00:13.725Z,95570.00
2022-11-21T13:03:37.203Z,95562.00
2022-11-21T13:06:06.805Z,95568.00
2022-11-21T13:08:36.922Z,95557.00
2022-11-21T13:11:31.572Z,95551.00
2022-11-21T13:14:15.782Z,95547.00
2022-11-21T13:16:52.042Z,95559.00
2022-11-21T13:20:02.182Z,95537.00
2022-11-21T13:22:51.517Z,95521.00
2022-11-21T13:25:33.700Z,95507.00
2022-11-21T13:28:18.778Z,95505.00
2022-11-21T13:30:52.841Z,95497.00
2022-11-21T13:33:35.004Z,95491.00
2022-11-21T13:36:13.472Z,95484.00
2022-11-21T13:38:54.953Z,95479.00
2022-11-21T13:41:55.569Z,95464.00
2022-11-21T13:44:31.671Z,95446.00
2022-11-21T13:47:12.253Z,95437.00
2022-11-21T13:50:23.067Z,95438.00
2022-11-21T13:53:45.281Z,95440.00
2022-11-21T13:56:36.268Z,95438.00
2022-11-21T13:59:44.523Z,95423.00
2022-11-21T14:02:39.007Z,95410.00
2022-11-21T14:05:52.442Z,95389.00
2022-11-21T14:08:26.881Z,95386.00
2022-11-21T14:10:56.049Z,95372.00
2022-11-21T14:13:31.818Z,95361.00
2022-11-21T14:16:24.103Z,95356.00
2022-11-21T14:18:51.617Z,95343.00
2022-11-21T14:21:27.028Z,95336.00
2022-11-21T14:23:58.036Z,95334.00
2022-11-21T14:26:25.563Z,95313.00
2022-11-21T14:28:52.614Z,95319.00
2022-11-21T14:31:19.416Z,95310.00
2022-11-21T14:33:47.943Z,95305.00
2022-11-21T14:36:18.985Z,95304.00
2022-11-21T14:39:35.421Z,95301.00
2022-11-21T14:42:05.850Z,95293.00
2022-11-21T14:44:32.678Z,95277.00
2022-11-21T14:47:12.708Z,95272.00
2022-11-21T14:49:39.466Z,95277.00
2022-11-21T14:52:12.112Z,95278.00
2022-11-21T14:57:50.217Z,95285.00
2022-11-21T15:00:57.460Z,95291.00
2022-11-21T15:03:22.694Z,95278.00
2022-11-21T15:06:08.165Z,95261.00
2022-11-21T15:09:18.355Z,95260.00
2022-11-21T15:11:36.217Z,95271.00
2022-11-21T15:14:18.929Z,95263.00
2022-11-21T15:16:49.056Z,95257.00
2022-11-21T15:19:28.701Z,95240.00
2022-11-21T15:22:00.262Z,95247.00
2022-11-21T15:24:43.813Z,95235.00
2022-11-21T15:27:32.935Z,95231.00
2022-11-21T15:30:06.724Z,95225.00
2022-11-21T15:32:33.578Z,95216.00
2022-11-21T15:35:01.467Z,95191.00
2022-11-21T15:37:28.324Z,95168.00
2022-11-21T15:39:55.378Z,95170.00
2022-11-21T15:42:34.296Z,95159.00
2022-11-21T15:45:23.834Z,95158.00
2022-11-21T15:47:50.620Z,95149.00
2022-11-21T15:50:17.994Z,95150.00
2022-11-21T15:52:50.863Z,95150.00
2022-11-21T15:55:23.848Z,95149.00
2022-11-21T15:57:50.802Z,95153.00
2022-11-21T16:00:17.884Z,95158.00
2022-11-21T16:02:44.678Z,95165.00
2022-11-21T16:05:15.845Z,95161.00
2022-11-21T16:07:42.727Z,95157.00
2022-11-21T16:10:18.394Z,95147.00
2022-11-21T16:12:49.551Z,95130.00
2022-11-21T16:15:16.486Z,95112.00
2022-11-21T16:17:45.402Z,95102.00
2022-11-21T16:20:12.553Z,95109.00
2022-11-21T16:22:42.811Z,95101.00
2022-11-21T16:25:13.787Z,95093.00
2022-11-21T16:27:40.518Z,95091.00
2022-11-21T16:30:07.875Z,95089.00
2022-11-21T16:32:34.608Z,95078.00
2022-11-21T16:35:01.348Z,95069.00
2022-11-21T16:37:28.178Z,95070.00
2022-11-21T16:39:54.913Z,95064.00
2022-11-21T16:42:21.747Z,95058.00
2022-11-21T16:44:48.533Z,95053.00
2022-11-21T16:47:15.526Z,95060.00
2022-11-21T16:49:48.255Z,95062.00
2022-11-21T16:52:15.924Z,95061.00
2022-11-21T16:54:42.698Z,95064.00
2022-11-21T16:57:09.800Z,95069.00
2022-11-21T16:59:36.657Z,95073.00
2022-11-21T17:02:03.836Z,95073.00
2022-11-21T17:04:30.946Z,95081.00
2022-11-21T17:06:57.950Z,95080.00
2022-11-21T17:09:24.716Z,95076.00
2022-11-21T17:11:51.549Z,95085.00
2022-11-21T17:14:18.277Z,95081.00
2022-11-21T17:16:45.694Z,95081.00
2022-11-21T17:19:16.108Z,95083.00
2022-11-21T17:21:42.930Z,95082.00
2022-11-21T17:24:12.350Z,95084.00
2022-11-21T17:26:39.122Z,95097.00
2022-11-21T17:29:06.009Z,95090.00
2022-11-21T17:31:33.042Z,95091.00
2022-11-21T17:34:01.210Z,95088.00
2022-11-21T17:36:30.771Z,95094.00
2022-11-21T17:38:57.794Z,95117.00
2022-11-21T17:41:27.200Z,95103.00
2022-11-21T17:43:56.573Z,95088.00
2022-11-21T17:46:25.508Z,95084.00
2022-11-21T17:48:57.674Z,95081.00
2022-11-21T17:51:33.502Z,95080.00
2022-11-21T17:54:01.374Z,95072.00
2022-11-21T17:56:31.685Z,95059.00
2022-11-21T17:58:59.079Z,95069.00
2022-11-21T18:01:26.240Z,95063.00
2022-11-21T18:04:10.133Z,95059.00
2022-11-21T18:06:40.682Z,95065.00
2022-11-21T18:09:10.516Z,95077.00
2022-11-21T18:11:40.292Z,95070.00
2022-11-21T18:14:09.901Z,95070.00
2022-11-21T18:16:39.242Z,95069.00
2022-11-21T18:19:07.023Z,95065.00
2022-11-21T18:21:35.844Z,95074.00
2022-11-21T18:24:02.656Z,95064.00
2022-11-21T18:26:36.201Z,95058.00
2022-11-21T18:29:35.541Z,95059.00
2022-11-21T18:31:53.268Z,95063.00
2022-11-21T18:34:20.074Z,95072.00
2022-11-21T18:36:47.689Z,95072.00
2022-11-21T18:39:15.657Z,95075.00
2022-11-21T18:41:43.474Z,95080.00
2022-11-21T18:44:11.981Z,95083.00
2022-11-21T18:46:40.432Z,95094.00
2022-11-21T18:49:08.244Z,95095.00
2022-11-21T18:51:36.230Z,95098.00
2022-11-21T18:54:10.863Z,95086.00
2022-11-21T18:56:39.362Z,95096.00
2022-11-21T18:59:07.029Z,95089.00
2022-11-21T19:01:36.822Z,95085.00
2022-11-21T19:04:04.313Z,95090.00
2022-11-21T19:06:31.947Z,95079.00
2022-11-21T19:08:59.110Z,95079.00
2022-11-21T19:11:29.074Z,95076.00
2022-11-21T19:13:57.081Z,95077.00
2022-11-21T19:16:26.984Z,95072.00
2022-11-21T19:19:26.496Z,95075.00
2022-11-21T19:21:41.927Z,95064.00
2022-11-21T19:24:15.307Z,95063.00
2022-11-21T19:26:42.826Z,95067.00
2022-11-21T19:29:10.591Z,95065.00
2022-11-21T19:31:44.150Z,95057.00
2022-11-21T19:34:13.191Z,95069.00
2022-11-21T19:36:40.159Z,95069.00
2022-11-21T19:39:07.028Z,95066.00
2022-11-21T19:41:33.958Z,95063.00
2022-11-21T19:44:02.142Z,95058.00
2022-11-21T19:46:34.005Z,95057.00
2022-11-21T19:49:01.966Z,95044.00
2022-11-21T19:51:35.214Z,95033.00
2022-11-21T19:54:06.208Z,95036.00
2022-11-21T19:56:33.332Z,95025.00
2022-11-21T19:59:00.088Z,95018.00
2022-11-21T20:01:30.014Z,95010.00
2022-11-21T20:04:01.462Z,94997.00
2022-11-21T20:06:41.316Z,95004.00
2022-11-21T20:09:15.563Z,94986.00
2022-11-21T20:11:45.332Z,94987.00
2022-11-21T20:14:21.419Z,94988.00
2022-11-21T20:16:50.156Z,94989.00
2022-11-21T20:19:19.592Z,95000.00
2022-11-21T20:21:47.229Z,94985.00
2022-11-21T20:24:14.642Z,94988.00
2022-11-21T20:26:42.391Z,94990.00
2022-11-21T20:29:13.158Z,94984.00
2022-11-21T20:31:40.715Z,94983.00
2022-11-21T20:34:12.612Z,94973.00
2022-11-21T20:36:40.212Z,94974.00
2022-11-21T20:39:13.228Z,94972.00
2022-11-21T20:41:41.512Z,94956.00
2022-11-21T20:47:07.128Z,94962.00
2022-11-21T20:49:34.796Z,94974.00
2022-11-21T20:54:48.440Z,94963.00
2022-11-21T20:57:15.797Z,94969.00
2022-11-21T20:59:43.149Z,94972.00
2022-11-21T21:02:12.201Z,94978.00
2022-11-21T21:04:39.492Z,94974.00
2022-11-21T21:07:06.344Z,94966.00
2022-11-21T21:09:33.115Z,94967.00
2022-11-21T21:12:00.106Z,94966.00
2022-11-21T21:14:26.837Z,94973.00
2022-11-21T21:16:53.567Z,94976.00
2022-11-21T21:19:20.620Z,94983.00
2022-11-21T21:21:47.449Z,94985.00
2022-11-21T21:24:14.844Z,94982.00
2022-11-21T21:26:45.745Z,94986.00
2022-11-21T21:29:17.022Z,94988.00
2022-11-21T21:31:50.627Z,94991.00
2022-11-21T21:34:20.056Z,94978.00
2022-11-21T21:36:47.080Z,94984.00
2022-11-21T21:39:14.197Z,94980.00
2022-11-21T21:41:44.311Z,94992.00
2022-11-21T21:44:11.076Z,94995.00
2022-11-21T21:46:37.831Z,94993.00
2022-11-21T21:49:04.722Z,95007.00
2022-11-21T21:51:32.162Z,95006.00
2022-11-21T21:54:00.173Z,95012.00
2022-11-21T21:56:28.678Z,95017.00
2022-11-21T21:58:57.828Z,95020.00
2022-11-21T22:01:30.789Z,95017.00
2022-11-21T22:04:02.885Z,95008.00
2022-11-21T22:06:32.745Z,95012.00
2022-11-21T22:08:59.896Z,95001.00
2022-11-21T22:11:29.769Z,95002.00
2022-11-21T22:14:12.294Z,95003.00
2022-11-21T22:16:39.928Z,95002.00
2022-11-21T22:19:07.039Z,95002.00
2022-11-21T22:21:38.401Z,94996.00
2022-11-21T22:24:27.559Z,94995.00
2022-11-21T22:26:54.740Z,95004.00
2022-11-21T22:29:21.494Z,94995.00
2022-11-21T22:31:48.231Z,95007.00
2022-11-21T22:34:15.044Z,95004.00
2022-11-21T22:36:42.040Z,95015.00
2022-11-21T22:39:09.443Z,95021.00
2022-11-21T22:41:36.206Z,95027.00
2022-11-21T22:44:02.998Z,95030.00
2022-11-21T22:46:30.388Z,95032.00
2022-11-21T22:48:58.331Z,95044.00
2022-11-21T22:51:29.139Z,95035.00
2022-11-21T22:53:56.309Z,95034.00
2022-11-21T22:56:24.358Z,95030.00
2022-11-21T22:58:51.612Z,95032.00
2022-11-21T23:01:21.553Z,95033.00
2022-11-21T23:03:49.273Z,95023.00
2022-11-21T23:06:25.346Z,95027.00
2022-11-21T23:08:56.442Z,95020.00
2022-11-21T23:11:30.690Z,95014.00
2022-11-21T23:13:57.744Z,95013.00
2022-11-21T23:16:25.702Z,95010.00
2022-11-21T23:18:54.525Z,95007.00
2022-11-21T23:21:21.544Z,95007.00
2022-11-21T23:23:48.500Z,94998.00
2022-11-21T23:26:15.598Z,94997.00
2022-11-21T23:28:42.330Z,94990.00
2022-11-21T23:31:10.395Z,94989.00
2022-11-21T23:33:37.223Z,94996.00
2022-11-21T23:36:04.461Z,94993.00
2022-11-21T23:38:31.252Z,94990.00
2022-11-21T23:40:57.975Z,94994.00
2022-11-21T23:43:25.010Z,94998.00
2022-11-21T23:45:53.230Z,95004.00
2022-11-21T23:48:21.304Z,95009.00
2022-11-21T23:50:50.289Z,94998.00
2022-11-21T23:53:18.191Z,95002.00
2022-11-21T23:55:45.087Z,95009.00
2022-11-21T23:58:12.875Z,95007.00
